sensor_id;sensor_type;location;lat;lon;timestamp;temperature;humidity
18191;DHT22;47004;51.366;12.348;2023-07-13T00:00:46;21.90;99.90
18191;DHT22;47004;51.366;12.348;2023-07-13T00:02:48;21.90;99.90
18191;DHT22;47004;51.366;12.348;2023-07-13T00:04:49;21.80;99.90
18191;DHT22;47004;51.366;12.348;2023-07-13T00:06:52;21.80;99.90
18191;DHT22;47004;51.366;12.348;2023-07-13T00:08:54;21.70;99.90
18191;DHT22;47004;51.366;12.348;2023-07-13T00:10:55;21.70;99.90
18191;DHT22;47004;51.366;12.348;2023-07-13T00:12:58;21.70;99.90
18191;DHT22;47004;51.366;12.348;2023-07-13T00:15:01;21.70;99.90
18191;DHT22;47004;51.366;12.348;2023-07-13T00:17:04;21.80;99.90
18191;DHT22;47004;51.366;12.348;2023-07-13T00:19:06;21.70;99.90
18191;DHT22;47004;51.366;12.348;2023-07-13T00:21:08;21.70;99.90
18191;DHT22;47004;51.366;12.348;2023-07-13T00:23:10;21.70;99.90
18191;DHT22;47004;51.366;12.348;2023-07-13T00:25:12;21.70;99.90
18191;DHT22;47004;51.366;12.348;2023-07-13T00:27:14;21.70;99.90
18191;DHT22;47004;51.366;12.348;2023-07-13T00:29:16;21.70;99.90
18191;DHT22;47004;51.366;12.348;2023-07-13T00:31:18;21.70;99.90
18191;DHT22;47004;51.366;12.348;2023-07-13T00:33:20;21.60;99.90
18191;DHT22;47004;51.366;12.348;2023-07-13T00:35:23;21.60;99.90
18191;DHT22;47004;51.366;12.348;2023-07-13T00:37:25;21.50;99.90
18191;DHT22;47004;51.366;12.348;2023-07-13T00:39:27;21.50;99.90
18191;DHT22;47004;51.366;12.348;2023-07-13T00:41:29;21.40;99.90
18191;DHT22;47004;51.366;12.348;2023-07-13T00:43:31;21.40;99.90
18191;DHT22;47004;51.366;12.348;2023-07-13T00:48:18;21.30;99.90
18191;DHT22;47004;51.366;12.348;2023-07-13T00:50:22;21.30;99.90
18191;DHT22;47004;51.366;12.348;2023-07-13T00:52:24;21.30;99.90
18191;DHT22;47004;51.366;12.348;2023-07-13T00:54:29;21.30;99.90
18191;DHT22;47004;51.366;12.348;2023-07-13T00:56:33;21.20;99.90
18191;DHT22;47004;51.366;12.348;2023-07-13T00:58:35;21.20;99.90
18191;DHT22;47004;51.366;12.348;2023-07-13T01:00:39;21.10;99.90
18191;DHT22;47004;51.366;12.348;2023-07-13T01:02:44;21.10;99.90
18191;DHT22;47004;51.366;12.348;2023-07-13T01:04:48;21.10;99.90
18191;DHT22;47004;51.366;12.348;2023-07-13T01:06:50;21.00;99.90
18191;DHT22;47004;51.366;12.348;2023-07-13T01:08:52;21.00;99.90
18191;DHT22;47004;51.366;12.348;2023-07-13T01:10:54;21.00;99.90
18191;DHT22;47004;51.366;12.348;2023-07-13T01:12:56;21.00;99.90
18191;DHT22;47004;51.366;12.348;2023-07-13T01:15:03;20.90;99.90
18191;DHT22;47004;51.366;12.348;2023-07-13T01:17:08;20.90;99.90
18191;DHT22;47004;51.366;12.348;2023-07-13T01:19:21;20.90;99.90
18191;DHT22;47004;51.366;12.348;2023-07-13T01:21:33;20.90;99.90
18191;DHT22;47004;51.366;12.348;2023-07-13T01:23:35;20.90;99.90
18191;DHT22;47004;51.366;12.348;2023-07-13T01:25:37;20.90;99.90
18191;DHT22;47004;51.366;12.348;2023-07-13T01:27:38;20.90;99.90
18191;DHT22;47004;51.366;12.348;2023-07-13T01:29:44;20.90;99.90
18191;DHT22;47004;51.366;12.348;2023-07-13T01:31:48;20.90;99.90
18191;DHT22;47004;51.366;12.348;2023-07-13T01:33:50;20.90;99.90
18191;DHT22;47004;51.366;12.348;2023-07-13T01:35:51;20.90;99.90
18191;DHT22;47004;51.366;12.348;2023-07-13T01:37:55;20.80;99.90
18191;DHT22;47004;51.366;12.348;2023-07-13T01:39:57;20.80;99.90
18191;DHT22;47004;51.366;12.348;2023-07-13T01:41:59;20.70;99.90
18191;DHT22;47004;51.366;12.348;2023-07-13T01:44:00;20.70;99.90
18191;DHT22;47004;51.366;12.348;2023-07-13T01:46:02;20.70;99.90
18191;DHT22;47004;51.366;12.348;2023-07-13T01:48:04;20.70;99.90
18191;DHT22;47004;51.366;12.348;2023-07-13T01:50:07;20.60;99.90
18191;DHT22;47004;51.366;12.348;2023-07-13T01:52:09;20.60;99.90
18191;DHT22;47004;51.366;12.348;2023-07-13T01:54:13;20.50;99.90
18191;DHT22;47004;51.366;12.348;2023-07-13T01:56:14;20.50;99.90
18191;DHT22;47004;51.366;12.348;2023-07-13T01:58:16;20.40;99.90
18191;DHT22;47004;51.366;12.348;2023-07-13T02:00:18;20.40;99.90
18191;DHT22;47004;51.366;12.348;2023-07-13T02:02:20;20.40;99.90
18191;DHT22;47004;51.366;12.348;2023-07-13T02:04:22;20.40;99.90
18191;DHT22;47004;51.366;12.348;2023-07-13T02:06:24;20.40;99.90
18191;DHT22;47004;51.366;12.348;2023-07-13T02:08:26;20.30;99.90
18191;DHT22;47004;51.366;12.348;2023-07-13T02:10:29;20.30;99.90
18191;DHT22;47004;51.366;12.348;2023-07-13T02:12:31;20.30;99.90
18191;DHT22;47004;51.366;12.348;2023-07-13T02:14:33;20.30;99.90
18191;DHT22;47004;51.366;12.348;2023-07-13T02:16:35;20.20;99.90
18191;DHT22;47004;51.366;12.348;2023-07-13T02:18:37;20.20;99.90
18191;DHT22;47004;51.366;12.348;2023-07-13T02:20:39;20.10;99.90
18191;DHT22;47004;51.366;12.348;2023-07-13T02:22:41;20.10;99.90
18191;DHT22;47004;51.366;12.348;2023-07-13T02:24:43;20.10;99.90
18191;DHT22;47004;51.366;12.348;2023-07-13T02:26:46;20.00;99.90
18191;DHT22;47004;51.366;12.348;2023-07-13T02:28:48;20.00;99.90
18191;DHT22;47004;51.366;12.348;2023-07-13T02:30:50;19.90;99.90
18191;DHT22;47004;51.366;12.348;2023-07-13T02:32:51;19.90;99.90
18191;DHT22;47004;51.366;12.348;2023-07-13T02:34:53;19.90;99.90
18191;DHT22;47004;51.366;12.348;2023-07-13T02:36:55;19.90;99.90
18191;DHT22;47004;51.366;12.348;2023-07-13T02:39:00;19.90;99.90
18191;DHT22;47004;51.366;12.348;2023-07-13T02:41:03;19.80;99.90
18191;DHT22;47004;51.366;12.348;2023-07-13T02:43:06;19.80;99.90
18191;DHT22;47004;51.366;12.348;2023-07-13T02:45:08;19.70;99.90
18191;DHT22;47004;51.366;12.348;2023-07-13T02:47:11;19.70;99.90
18191;DHT22;47004;51.366;12.348;2023-07-13T02:49:13;19.60;99.90
18191;DHT22;47004;51.366;12.348;2023-07-13T02:51:15;19.50;99.90
18191;DHT22;47004;51.366;12.348;2023-07-13T02:53:17;19.50;99.90
18191;DHT22;47004;51.366;12.348;2023-07-13T02:55:19;19.50;99.90
18191;DHT22;47004;51.366;12.348;2023-07-13T02:57:21;19.40;99.90
18191;DHT22;47004;51.366;12.348;2023-07-13T02:59:24;19.30;99.90
18191;DHT22;47004;51.366;12.348;2023-07-13T03:01:26;19.40;99.90
18191;DHT22;47004;51.366;12.348;2023-07-13T03:03:28;19.40;99.90
18191;DHT22;47004;51.366;12.348;2023-07-13T03:05:28;19.40;99.90
18191;DHT22;47004;51.366;12.348;2023-07-13T03:07:30;19.30;99.90
18191;DHT22;47004;51.366;12.348;2023-07-13T03:09:35;19.30;99.90
18191;DHT22;47004;51.366;12.348;2023-07-13T03:11:37;19.30;99.90
18191;DHT22;47004;51.366;12.348;2023-07-13T03:13:39;19.20;99.90
18191;DHT22;47004;51.366;12.348;2023-07-13T03:15:43;19.20;99.90
18191;DHT22;47004;51.366;12.348;2023-07-13T03:17:45;19.20;99.90
18191;DHT22;47004;51.366;12.348;2023-07-13T03:19:46;19.10;99.90
18191;DHT22;47004;51.366;12.348;2023-07-13T03:21:50;19.10;99.90
18191;DHT22;47004;51.366;12.348;2023-07-13T03:23:51;19.00;99.90
18191;DHT22;47004;51.366;12.348;2023-07-13T03:26:02;19.00;99.90
18191;DHT22;47004;51.366;12.348;2023-07-13T03:28:04;19.00;99.90
18191;DHT22;47004;51.366;12.348;2023-07-13T03:30:07;19.00;99.90
18191;DHT22;47004;51.366;12.348;2023-07-13T03:32:10;18.90;99.90
18191;DHT22;47004;51.366;12.348;2023-07-13T03:34:12;18.90;99.90
18191;DHT22;47004;51.366;12.348;2023-07-13T03:36:16;18.90;99.90
18191;DHT22;47004;51.366;12.348;2023-07-13T03:38:19;18.80;99.90
18191;DHT22;47004;51.366;12.348;2023-07-13T03:40:21;18.80;99.90
18191;DHT22;47004;51.366;12.348;2023-07-13T03:42:23;18.70;99.90
18191;DHT22;47004;51.366;12.348;2023-07-13T03:44:26;18.60;99.90
18191;DHT22;47004;51.366;12.348;2023-07-13T03:46:28;18.60;99.90
18191;DHT22;47004;51.366;12.348;2023-07-13T03:48:30;18.60;99.90
18191;DHT22;47004;51.366;12.348;2023-07-13T03:50:32;18.60;99.90
18191;DHT22;47004;51.366;12.348;2023-07-13T03:52:34;18.50;99.90
18191;DHT22;47004;51.366;12.348;2023-07-13T03:54:36;18.50;99.90
18191;DHT22;47004;51.366;12.348;2023-07-13T03:56:38;18.50;99.90
18191;DHT22;47004;51.366;12.348;2023-07-13T03:58:41;18.50;99.90
18191;DHT22;47004;51.366;12.348;2023-07-13T04:00:42;18.40;99.90
18191;DHT22;47004;51.366;12.348;2023-07-13T04:02:44;18.40;99.90
18191;DHT22;47004;51.366;12.348;2023-07-13T04:04:49;18.40;99.90
18191;DHT22;47004;51.366;12.348;2023-07-13T04:06:51;18.40;99.90
18191;DHT22;47004;51.366;12.348;2023-07-13T04:08:55;18.40;99.90
18191;DHT22;47004;51.366;12.348;2023-07-13T04:10:57;18.30;99.90
18191;DHT22;47004;51.366;12.348;2023-07-13T04:12:59;18.40;99.90
18191;DHT22;47004;51.366;12.348;2023-07-13T04:15:00;18.40;99.90
18191;DHT22;47004;51.366;12.348;2023-07-13T04:17:02;18.40;99.90
18191;DHT22;47004;51.366;12.348;2023-07-13T04:19:04;18.30;99.90
18191;DHT22;47004;51.366;12.348;2023-07-13T04:21:08;18.30;99.90
18191;DHT22;47004;51.366;12.348;2023-07-13T04:23:10;18.30;99.90
18191;DHT22;47004;51.366;12.348;2023-07-13T04:25:12;18.30;99.90
18191;DHT22;47004;51.366;12.348;2023-07-13T04:27:14;18.30;99.90
18191;DHT22;47004;51.366;12.348;2023-07-13T04:29:16;18.40;99.90
18191;DHT22;47004;51.366;12.348;2023-07-13T04:31:18;18.30;99.90
18191;DHT22;47004;51.366;12.348;2023-07-13T04:33:20;18.30;99.90
18191;DHT22;47004;51.366;12.348;2023-07-13T04:35:23;18.30;99.90
18191;DHT22;47004;51.366;12.348;2023-07-13T04:37:27;18.30;99.90
18191;DHT22;47004;51.366;12.348;2023-07-13T04:39:29;18.30;99.90
18191;DHT22;47004;51.366;12.348;2023-07-13T04:41:31;18.40;99.90
18191;DHT22;47004;51.366;12.348;2023-07-13T04:43:34;18.40;99.90
18191;DHT22;47004;51.366;12.348;2023-07-13T04:45:36;18.40;99.90
18191;DHT22;47004;51.366;12.348;2023-07-13T04:47:38;18.40;99.90
18191;DHT22;47004;51.366;12.348;2023-07-13T04:49:40;18.40;99.90
18191;DHT22;47004;51.366;12.348;2023-07-13T04:51:42;18.40;99.90
18191;DHT22;47004;51.366;12.348;2023-07-13T04:53:45;18.30;99.90
18191;DHT22;47004;51.366;12.348;2023-07-13T04:55:47;18.30;99.90
18191;DHT22;47004;51.366;12.348;2023-07-13T04:57:49;18.30;99.90
18191;DHT22;47004;51.366;12.348;2023-07-13T04:59:51;18.30;99.90
18191;DHT22;47004;51.366;12.348;2023-07-13T05:01:53;18.30;99.90
18191;DHT22;47004;51.366;12.348;2023-07-13T05:03:55;18.30;99.90
18191;DHT22;47004;51.366;12.348;2023-07-13T05:06:01;18.30;99.90
18191;DHT22;47004;51.366;12.348;2023-07-13T05:08:02;18.30;99.90
18191;DHT22;47004;51.366;12.348;2023-07-13T05:10:06;18.30;99.90
18191;DHT22;47004;51.366;12.348;2023-07-13T05:12:09;18.30;99.90
18191;DHT22;47004;51.366;12.348;2023-07-13T05:14:11;18.30;99.90
18191;DHT22;47004;51.366;12.348;2023-07-13T05:16:13;18.30;99.90
18191;DHT22;47004;51.366;12.348;2023-07-13T05:18:15;18.30;99.90
18191;DHT22;47004;51.366;12.348;2023-07-13T05:20:18;18.30;99.90
18191;DHT22;47004;51.366;12.348;2023-07-13T05:22:20;18.40;99.90
18191;DHT22;47004;51.366;12.348;2023-07-13T05:24:22;18.40;99.90
18191;DHT22;47004;51.366;12.348;2023-07-13T05:26:24;18.40;99.90
18191;DHT22;47004;51.366;12.348;2023-07-13T05:28:27;18.50;99.90
18191;DHT22;47004;51.366;12.348;2023-07-13T05:30:29;18.50;99.90
18191;DHT22;47004;51.366;12.348;2023-07-13T05:32:31;18.50;99.90
18191;DHT22;47004;51.366;12.348;2023-07-13T05:34:33;18.50;99.90
18191;DHT22;47004;51.366;12.348;2023-07-13T05:36:34;18.60;99.90
18191;DHT22;47004;51.366;12.348;2023-07-13T05:38:36;18.50;99.90
18191;DHT22;47004;51.366;12.348;2023-07-13T05:40:38;18.60;99.90
18191;DHT22;47004;51.366;12.348;2023-07-13T05:42:41;18.60;99.90
18191;DHT22;47004;51.366;12.348;2023-07-13T05:44:43;18.70;99.90
18191;DHT22;47004;51.366;12.348;2023-07-13T05:46:44;18.70;99.90
18191;DHT22;47004;51.366;12.348;2023-07-13T05:48:46;18.80;99.90
18191;DHT22;47004;51.366;12.348;2023-07-13T05:50:48;18.80;99.90
18191;DHT22;47004;51.366;12.348;2023-07-13T05:52:50;18.80;99.90
18191;DHT22;47004;51.366;12.348;2023-07-13T05:54:52;18.90;99.90
18191;DHT22;47004;51.366;12.348;2023-07-13T05:56:54;18.90;99.90
18191;DHT22;47004;51.366;12.348;2023-07-13T05:58:57;19.00;99.90
18191;DHT22;47004;51.366;12.348;2023-07-13T06:01:01;19.00;99.90
18191;DHT22;47004;51.366;12.348;2023-07-13T06:03:03;19.10;99.90
18191;DHT22;47004;51.366;12.348;2023-07-13T06:05:07;19.20;99.90
18191;DHT22;47004;51.366;12.348;2023-07-13T06:07:09;19.30;99.90
18191;DHT22;47004;51.366;12.348;2023-07-13T06:09:11;19.30;99.90
18191;DHT22;47004;51.366;12.348;2023-07-13T06:11:15;19.30;99.90
18191;DHT22;47004;51.366;12.348;2023-07-13T06:13:17;19.30;99.90
18191;DHT22;47004;51.366;12.348;2023-07-13T06:15:21;19.40;99.90
18191;DHT22;47004;51.366;12.348;2023-07-13T06:17:22;19.40;99.90
18191;DHT22;47004;51.366;12.348;2023-07-13T06:19:24;19.40;99.90
18191;DHT22;47004;51.366;12.348;2023-07-13T06:21:26;19.50;99.90
18191;DHT22;47004;51.366;12.348;2023-07-13T06:23:28;19.50;99.90
18191;DHT22;47004;51.366;12.348;2023-07-13T06:25:29;19.50;99.90
18191;DHT22;47004;51.366;12.348;2023-07-13T06:27:31;19.60;99.90
18191;DHT22;47004;51.366;12.348;2023-07-13T06:29:33;19.60;99.90
18191;DHT22;47004;51.366;12.348;2023-07-13T06:31:36;19.60;99.90
18191;DHT22;47004;51.366;12.348;2023-07-13T06:33:38;19.70;99.90
18191;DHT22;47004;51.366;12.348;2023-07-13T06:35:40;19.70;99.90
18191;DHT22;47004;51.366;12.348;2023-07-13T06:37:42;19.80;99.90
18191;DHT22;47004;51.366;12.348;2023-07-13T06:39:44;19.80;99.90
18191;DHT22;47004;51.366;12.348;2023-07-13T06:41:46;19.90;99.90
18191;DHT22;47004;51.366;12.348;2023-07-13T06:43:48;19.90;99.90
18191;DHT22;47004;51.366;12.348;2023-07-13T06:45:49;20.00;99.90
18191;DHT22;47004;51.366;12.348;2023-07-13T06:47:53;20.00;99.90
18191;DHT22;47004;51.366;12.348;2023-07-13T06:49:55;20.10;99.90
18191;DHT22;47004;51.366;12.348;2023-07-13T06:51:57;20.20;99.90
18191;DHT22;47004;51.366;12.348;2023-07-13T06:53:59;20.20;99.90
18191;DHT22;47004;51.366;12.348;2023-07-13T06:56:01;20.30;99.90
18191;DHT22;47004;51.366;12.348;2023-07-13T06:58:03;20.40;99.90
18191;DHT22;47004;51.366;12.348;2023-07-13T07:00:06;20.50;99.90
18191;DHT22;47004;51.366;12.348;2023-07-13T07:02:11;20.60;99.90
18191;DHT22;47004;51.366;12.348;2023-07-13T07:04:14;20.80;99.90
18191;DHT22;47004;51.366;12.348;2023-07-13T07:06:17;20.80;99.90
18191;DHT22;47004;51.366;12.348;2023-07-13T07:08:19;20.90;99.90
18191;DHT22;47004;51.366;12.348;2023-07-13T07:10:21;20.90;99.90
18191;DHT22;47004;51.366;12.348;2023-07-13T07:12:23;20.90;99.90
18191;DHT22;47004;51.366;12.348;2023-07-13T07:14:25;21.00;99.90
18191;DHT22;47004;51.366;12.348;2023-07-13T07:16:27;21.00;99.90
18191;DHT22;47004;51.366;12.348;2023-07-13T07:18:29;21.00;99.90
18191;DHT22;47004;51.366;12.348;2023-07-13T07:20:32;21.10;99.90
18191;DHT22;47004;51.366;12.348;2023-07-13T07:22:34;21.10;99.90
18191;DHT22;47004;51.366;12.348;2023-07-13T07:24:36;21.10;99.90
18191;DHT22;47004;51.366;12.348;2023-07-13T07:26:38;21.10;99.90
18191;DHT22;47004;51.366;12.348;2023-07-13T07:28:40;21.10;99.90
18191;DHT22;47004;51.366;12.348;2023-07-13T07:30:42;21.20;99.90
18191;DHT22;47004;51.366;12.348;2023-07-13T07:32:44;21.30;99.90
18191;DHT22;47004;51.366;12.348;2023-07-13T07:34:46;21.30;99.90
18191;DHT22;47004;51.366;12.348;2023-07-13T07:36:49;21.30;99.90
18191;DHT22;47004;51.366;12.348;2023-07-13T07:38:51;21.40;99.90
18191;DHT22;47004;51.366;12.348;2023-07-13T07:40:53;21.50;99.90
18191;DHT22;47004;51.366;12.348;2023-07-13T07:42:55;21.60;99.90
18191;DHT22;47004;51.366;12.348;2023-07-13T07:44:57;21.70;99.90
18191;DHT22;47004;51.366;12.348;2023-07-13T07:46:59;21.80;99.90
18191;DHT22;47004;51.366;12.348;2023-07-13T07:49:01;21.80;99.90
18191;DHT22;47004;51.366;12.348;2023-07-13T07:51:03;21.80;99.90
18191;DHT22;47004;51.366;12.348;2023-07-13T07:53:10;21.90;99.90
18191;DHT22;47004;51.366;12.348;2023-07-13T07:55:13;21.80;99.90
18191;DHT22;47004;51.366;12.348;2023-07-13T07:57:15;21.80;99.90
18191;DHT22;47004;51.366;12.348;2023-07-13T07:59:17;21.90;99.90
18191;DHT22;47004;51.366;12.348;2023-07-13T08:01:18;22.00;99.90
18191;DHT22;47004;51.366;12.348;2023-07-13T08:03:20;22.00;99.90
18191;DHT22;47004;51.366;12.348;2023-07-13T08:05:22;22.00;99.90
18191;DHT22;47004;51.366;12.348;2023-07-13T08:07:24;22.10;99.90
18191;DHT22;47004;51.366;12.348;2023-07-13T08:09:27;22.20;99.90
18191;DHT22;47004;51.366;12.348;2023-07-13T08:11:29;22.20;98.90
18191;DHT22;47004;51.366;12.348;2023-07-13T08:13:31;22.30;98.50
18191;DHT22;47004;51.366;12.348;2023-07-13T08:15:33;22.30;97.70
18191;DHT22;47004;51.366;12.348;2023-07-13T08:17:35;22.30;98.30
18191;DHT22;47004;51.366;12.348;2023-07-13T08:19:37;22.30;97.80
18191;DHT22;47004;51.366;12.348;2023-07-13T08:21:39;22.40;98.90
18191;DHT22;47004;51.366;12.348;2023-07-13T08:23:40;22.40;98.60
18191;DHT22;47004;51.366;12.348;2023-07-13T08:25:50;22.40;95.20
18191;DHT22;47004;51.366;12.348;2023-07-13T08:27:51;22.50;94.30
18191;DHT22;47004;51.366;12.348;2023-07-13T08:29:54;22.50;92.60
18191;DHT22;47004;51.366;12.348;2023-07-13T08:31:57;22.50;92.00
18191;DHT22;47004;51.366;12.348;2023-07-13T08:33:59;22.50;91.10
18191;DHT22;47004;51.366;12.348;2023-07-13T08:36:01;22.50;87.90
18191;DHT22;47004;51.366;12.348;2023-07-13T08:38:03;22.60;89.70
18191;DHT22;47004;51.366;12.348;2023-07-13T08:40:07;22.60;90.20
18191;DHT22;47004;51.366;12.348;2023-07-13T08:42:16;22.70;89.50
18191;DHT22;47004;51.366;12.348;2023-07-13T08:44:27;22.70;86.20
18191;DHT22;47004;51.366;12.348;2023-07-13T08:46:35;22.70;85.00
18191;DHT22;47004;51.366;12.348;2023-07-13T08:48:41;22.80;80.00
18191;DHT22;47004;51.366;12.348;2023-07-13T08:50:49;22.80;79.90
18191;DHT22;47004;51.366;12.348;2023-07-13T08:52:55;22.90;77.40
18191;DHT22;47004;51.366;12.348;2023-07-13T08:54:58;22.90;74.60
18191;DHT22;47004;51.366;12.348;2023-07-13T08:57:12;23.00;74.20
18191;DHT22;47004;51.366;12.348;2023-07-13T08:59:16;23.00;72.60
18191;DHT22;47004;51.366;12.348;2023-07-13T09:01:22;23.20;71.60
18191;DHT22;47004;51.366;12.348;2023-07-13T09:03:29;23.40;68.60
18191;DHT22;47004;51.366;12.348;2023-07-13T09:05:36;23.60;68.30
18191;DHT22;47004;51.366;12.348;2023-07-13T09:07:50;23.70;64.00
18191;DHT22;47004;51.366;12.348;2023-07-13T09:10:03;23.90;62.30
18191;DHT22;47004;51.366;12.348;2023-07-13T09:12:14;24.10;59.40
18191;DHT22;47004;51.366;12.348;2023-07-13T09:14:34;24.20;59.00
18191;DHT22;47004;51.366;12.348;2023-07-13T09:16:37;24.30;58.50
18191;DHT22;47004;51.366;12.348;2023-07-13T09:18:43;24.40;58.60
18191;DHT22;47004;51.366;12.348;2023-07-13T09:20:49;24.50;58.90
18191;DHT22;47004;51.366;12.348;2023-07-13T09:22:52;24.30;59.60
18191;DHT22;47004;51.366;12.348;2023-07-13T09:25:00;24.30;59.70
18191;DHT22;47004;51.366;12.348;2023-07-13T09:27:13;24.30;60.10
18191;DHT22;47004;51.366;12.348;2023-07-13T09:29:23;24.40;58.40
18191;DHT22;47004;51.366;12.348;2023-07-13T09:31:32;24.50;55.90
18191;DHT22;47004;51.366;12.348;2023-07-13T09:33:35;24.60;56.00
18191;DHT22;47004;51.366;12.348;2023-07-13T09:35:37;24.60;54.80
18191;DHT22;47004;51.366;12.348;2023-07-13T09:37:39;24.70;55.00
18191;DHT22;47004;51.366;12.348;2023-07-13T09:39:43;24.80;54.30
18191;DHT22;47004;51.366;12.348;2023-07-13T09:41:48;24.90;52.70
18191;DHT22;47004;51.366;12.348;2023-07-13T09:44:10;25.00;51.40
18191;DHT22;47004;51.366;12.348;2023-07-13T09:46:21;25.10;51.40
18191;DHT22;47004;51.366;12.348;2023-07-13T09:48:23;25.20;51.70
18191;DHT22;47004;51.366;12.348;2023-07-13T09:50:26;25.30;51.40
18191;DHT22;47004;51.366;12.348;2023-07-13T09:52:41;25.40;49.50
18191;DHT22;47004;51.366;12.348;2023-07-13T09:54:46;25.50;47.80
18191;DHT22;47004;51.366;12.348;2023-07-13T09:56:54;25.50;46.80
18191;DHT22;47004;51.366;12.348;2023-07-13T09:58:57;25.60;47.40
18191;DHT22;47004;51.366;12.348;2023-07-13T10:01:01;25.70;47.70
18191;DHT22;47004;51.366;12.348;2023-07-13T10:03:09;25.70;47.70
18191;DHT22;47004;51.366;12.348;2023-07-13T10:05:16;25.80;47.80
18191;DHT22;47004;51.366;12.348;2023-07-13T10:07:23;25.80;47.70
18191;DHT22;47004;51.366;12.348;2023-07-13T10:09:23;25.80;46.90
18191;DHT22;47004;51.366;12.348;2023-07-13T10:11:28;25.90;46.70
18191;DHT22;47004;51.366;12.348;2023-07-13T10:13:34;26.00;46.40
18191;DHT22;47004;51.366;12.348;2023-07-13T10:15:37;26.20;46.20
18191;DHT22;47004;51.366;12.348;2023-07-13T10:17:39;26.30;46.60
18191;DHT22;47004;51.366;12.348;2023-07-13T10:19:43;26.30;46.30
18191;DHT22;47004;51.366;12.348;2023-07-13T10:21:50;26.40;46.30
18191;DHT22;47004;51.366;12.348;2023-07-13T10:23:57;26.30;45.70
18191;DHT22;47004;51.366;12.348;2023-07-13T10:26:05;26.40;45.30
18191;DHT22;47004;51.366;12.348;2023-07-13T10:28:19;26.40;46.00
18191;DHT22;47004;51.366;12.348;2023-07-13T10:30:25;26.40;45.90
18191;DHT22;47004;51.366;12.348;2023-07-13T10:32:29;26.30;45.70
18191;DHT22;47004;51.366;12.348;2023-07-13T10:34:30;26.30;45.10
18191;DHT22;47004;51.366;12.348;2023-07-13T10:36:40;26.30;45.00
18191;DHT22;47004;51.366;12.348;2023-07-13T10:38:45;26.20;45.20
18191;DHT22;47004;51.366;12.348;2023-07-13T10:40:54;26.00;45.80
18191;DHT22;47004;51.366;12.348;2023-07-13T10:42:59;25.90;46.20
18191;DHT22;47004;51.366;12.348;2023-07-13T10:45:13;25.80;45.60
18191;DHT22;47004;51.366;12.348;2023-07-13T10:47:16;25.80;45.80
18191;DHT22;47004;51.366;12.348;2023-07-13T10:49:19;25.80;45.60
18191;DHT22;47004;51.366;12.348;2023-07-13T10:51:22;25.90;45.30
18191;DHT22;47004;51.366;12.348;2023-07-13T10:53:30;26.00;44.50
18191;DHT22;47004;51.366;12.348;2023-07-13T10:55:35;26.10;43.70
18191;DHT22;47004;51.366;12.348;2023-07-13T10:57:42;26.20;43.50
18191;DHT22;47004;51.366;12.348;2023-07-13T10:59:47;26.30;43.30
18191;DHT22;47004;51.366;12.348;2023-07-13T11:01:55;26.30;43.10
18191;DHT22;47004;51.366;12.348;2023-07-13T11:04:01;26.30;42.80
18191;DHT22;47004;51.366;12.348;2023-07-13T11:06:11;26.20;41.90
18191;DHT22;47004;51.366;12.348;2023-07-13T11:08:20;26.10;42.60
18191;DHT22;47004;51.366;12.348;2023-07-13T11:10:48;26.10;42.00
18191;DHT22;47004;51.366;12.348;2023-07-13T11:12:53;26.10;40.30
18191;DHT22;47004;51.366;12.348;2023-07-13T11:15:07;26.10;39.30
18191;DHT22;47004;51.366;12.348;2023-07-13T11:17:35;26.30;39.10
18191;DHT22;47004;51.366;12.348;2023-07-13T11:19:40;26.60;37.80
18191;DHT22;47004;51.366;12.348;2023-07-13T11:22:02;26.60;37.20
18191;DHT22;47004;51.366;12.348;2023-07-13T11:24:15;26.50;37.00
18191;DHT22;47004;51.366;12.348;2023-07-13T11:26:42;26.50;36.80
18191;DHT22;47004;51.366;12.348;2023-07-13T11:28:51;26.50;36.60
18191;DHT22;47004;51.366;12.348;2023-07-13T11:31:02;26.50;35.90
18191;DHT22;47004;51.366;12.348;2023-07-13T11:33:14;26.50;35.80
18191;DHT22;47004;51.366;12.348;2023-07-13T11:35:21;26.50;37.00
18191;DHT22;47004;51.366;12.348;2023-07-13T11:37:24;26.60;36.60
18191;DHT22;47004;51.366;12.348;2023-07-13T11:39:30;26.80;36.40
18191;DHT22;47004;51.366;12.348;2023-07-13T11:41:35;27.10;35.70
18191;DHT22;47004;51.366;12.348;2023-07-13T11:43:40;27.20;35.00
18191;DHT22;47004;51.366;12.348;2023-07-13T11:45:43;27.50;34.70
18191;DHT22;47004;51.366;12.348;2023-07-13T11:47:44;27.70;35.40
18191;DHT22;47004;51.366;12.348;2023-07-13T11:49:49;28.10;34.90
18191;DHT22;47004;51.366;12.348;2023-07-13T11:51:53;28.30;34.10
18191;DHT22;47004;51.366;12.348;2023-07-13T11:53:56;28.40;33.60
18191;DHT22;47004;51.366;12.348;2023-07-13T11:55:59;28.40;33.70
18191;DHT22;47004;51.366;12.348;2023-07-13T11:58:01;28.50;33.10
18191;DHT22;47004;51.366;12.348;2023-07-13T12:00:12;28.60;32.90
18191;DHT22;47004;51.366;12.348;2023-07-13T12:02:18;28.90;32.80
18191;DHT22;47004;51.366;12.348;2023-07-13T12:04:25;29.30;31.20
18191;DHT22;47004;51.366;12.348;2023-07-13T12:06:29;29.70;29.30
18191;DHT22;47004;51.366;12.348;2023-07-13T12:08:38;30.10;29.70
18191;DHT22;47004;51.366;12.348;2023-07-13T12:10:40;30.50;28.00
18191;DHT22;47004;51.366;12.348;2023-07-13T12:12:47;30.80;28.30
18191;DHT22;47004;51.366;12.348;2023-07-13T12:14:51;30.90;27.90
18191;DHT22;47004;51.366;12.348;2023-07-13T12:16:55;30.90;27.80
18191;DHT22;47004;51.366;12.348;2023-07-13T12:18:58;31.30;27.90
18191;DHT22;47004;51.366;12.348;2023-07-13T12:21:00;31.80;26.60
18191;DHT22;47004;51.366;12.348;2023-07-13T12:23:05;32.40;26.00
18191;DHT22;47004;51.366;12.348;2023-07-13T12:25:11;32.60;25.20
18191;DHT22;47004;51.366;12.348;2023-07-13T12:27:20;32.40;25.20
18191;DHT22;47004;51.366;12.348;2023-07-13T12:29:23;32.30;25.40
18191;DHT22;47004;51.366;12.348;2023-07-13T12:31:30;32.20;25.60
18191;DHT22;47004;51.366;12.348;2023-07-13T12:33:33;32.20;25.70
18191;DHT22;47004;51.366;12.348;2023-07-13T12:35:41;32.40;25.20
18191;DHT22;47004;51.366;12.348;2023-07-13T12:37:46;32.90;25.00
18191;DHT22;47004;51.366;12.348;2023-07-13T12:39:49;33.40;24.70
18191;DHT22;47004;51.366;12.348;2023-07-13T12:41:52;33.80;24.60
18191;DHT22;47004;51.366;12.348;2023-07-13T12:43:55;34.10;24.40
18191;DHT22;47004;51.366;12.348;2023-07-13T12:45:59;34.30;24.10
18191;DHT22;47004;51.366;12.348;2023-07-13T12:48:05;34.60;23.80
18191;DHT22;47004;51.366;12.348;2023-07-13T12:50:16;35.00;23.30
18191;DHT22;47004;51.366;12.348;2023-07-13T12:52:21;35.20;23.40